• Join FlightAware (Why Join?)
  • Login
  • US Flag 
12:00AM EST


 

Airport Tracker/Info


-or-


 

Live Flight TrackerFlight Track Log ✈ DAL3672 ✈ 14-Apr-2013 ✈ KMHT - KDTW

Flight Track Log - Related Links

Times and Time Zones

All times are in EDT time to prevent confusion due to time zone crossing. See the DAL3672 flight status page for this flight to view local times or setup timezone preferences in your user account.

Time Position Orientation Groundspeed Altitude Reporting Facility
EDT Latitude Longitude Course Direction KTS MPH feet Rate Location/Type
12:26PM 43.0114 -71.5117 325° Northwest 216 249 4,900  Level Boston Center
12:27PM 43.0433 -71.5992 297° West 222 255 7,500 2,508 Climbing Boston Center
12:28PM 43.0481 -71.6900 274° West 250 288 10,000 2,118 Climbing Boston Center
12:29PM 43.0531 -71.8064 273° West 274 315 11,700 1,881 Climbing Boston Center
12:30PM 43.0578 -71.9117 274° West 300 345 13,700 2,083 Climbing Boston Center
12:31PM 43.0625 -72.0394 273° West 311 358 15,900 1,884 Climbing Boston Center
12:32PM 43.0669 -72.1472 273° West 311 358 17,500 1,542 Climbing Boston Center
12:34PM 43.0739 -72.3018 274° West  Level FlightAware Approximate
12:34PM 43.0861 -72.3803 274° West 311 358 20,500  Level Boston Center
12:35PM 43.0881 -72.4997 271° West 311 358 21,900 992 Climbing Boston Center
12:36PM 43.0922 -72.6250 273° West 311 358 22,500 744 Climbing Boston Center
12:37PM 43.0897 -72.7472 268° West 321 369 23,400 843 Climbing Boston Center
12:38PM 43.0936 -72.8750 272° West 328 377 24,200 893 Climbing Boston Center
12:39PM 43.0992 -73.0200 273° West 333 383 25,200 966 Climbing Boston Center
12:40PM 43.0653 -73.1419 249° West 338 389 26,100 824 Climbing Boston Center
12:42PM 43.0267 -73.2892 250° West 343 395 27,000 761 Climbing Boston Center
12:43PM 42.9881 -73.4108 247° West 352 405 27,800 750 Climbing Boston Center
12:44PM 42.9661 -73.5353 256° West 352 405 28,500 650 Climbing Boston Center
12:45PM 42.9772 -73.6661 277° West 337 388 29,100 610 Climbing Boston Center
12:46PM 42.9883 -73.7939 277° West 337 388 29,700 458 Climbing Boston Center
12:47PM 43.0014 -73.9192 278° West 342 394 30,000 134 Climbing Boston Center
12:48PM 43.0117 -74.0842 275° West 353 406 30,000  Level Boston Center
12:49PM 43.0242 -74.2236 277° West 363 418 30,000  Level Boston Center
12:50PM 43.0344 -74.3689 276° West 377 434 30,000  Level Boston Center
12:51PM 43.0464 -74.5111 277° West 382 440 30,000  Level Boston Center
12:52PM 43.0561 -74.6594 275° West 388 447 30,000  Level Boston Center
12:53PM 43.0678 -74.8047 276° West 388 447 30,000  Level Boston Center
12:54PM 43.0778 -74.9189 277° West 388 447 30,000  Level Boston Center
12:55PM 43.0886 -75.0956 275° West 393 452 30,000  Level Boston Center
12:56PM 43.0997 -75.2411 276° West 393 452 30,000  Level Boston Center
12:57PM 43.1067 -75.3722 274° West 388 447 30,000  Level Boston Center
12:58PM 43.1194 -75.5208 277° West 388 447 30,000  Level Boston Center
12:59PM 43.1281 -75.6664 275° West 388 447 30,000  Level Boston Center
01:00PM 43.1361 -75.8147 274° West 388 447 30,000  Level Boston Center
01:01PM 43.1464 -75.9578 276° West 388 447 30,000  Level Boston Center
01:03PM 43.1564 -76.2456 273° West 381 438 30,000  Level Cleveland Center
01:04PM 43.1450 -76.3914 264° West 386 444 30,000  Level Cleveland Center
01:05PM 43.1336 -76.5375 264° West 386 444 30,000  Level Cleveland Center
01:06PM 43.1200 -76.6864 263° West 392 451 30,000  Level Cleveland Center
01:07PM 43.1058 -76.8294 262° West 392 451 30,000  Level Cleveland Center
01:08PM 43.0919 -76.9781 263° West 392 451 30,000  Level Cleveland Center
01:09PM 43.0794 -77.1181 263° West 392 451 30,000  Level Cleveland Center
01:10PM 43.0669 -77.2639 263° West 392 451 30,000  Level Cleveland Center
01:11PM 43.0544 -77.4067 263° West 392 451 30,000  Level Cleveland Center
01:12PM 43.0378 -77.5664 262° West 392 451 30,000  Level Cleveland Center
01:13PM 43.0247 -77.7064 263° West 392 451 30,000  Level Cleveland Center
01:14PM 43.0094 -77.8489 262° West 387 445 30,000  Level Cleveland Center
01:15PM 42.9981 -77.9914 264° West 387 445 30,000  Level Cleveland Center
01:16PM 42.9822 -78.1283 261° West 387 445 30,000  Level Cleveland Center
01:17PM 42.9686 -78.2736 263° West 387 445 30,000  Level Cleveland Center
01:18PM 42.9547 -78.4131 262° West 387 445 30,000  Level Cleveland Center
01:19PM 42.9406 -78.5525 262° West 382 440 30,000  Level Cleveland Center
01:20PM 42.9242 -78.6950 261° West 382 440 30,000  Level Cleveland Center
01:21PM 42.9056 -78.8344 260° West 382 440 30,000  Level Cleveland Center
01:22PM 42.8847 -78.9767 259° West 382 440 30,000  Level Cleveland Center
01:23PM 42.8636 -79.1161 258° West 382 440 30,000  Level Cleveland Center
01:24PM 42.8422 -79.2553 258° West 382 440 30,000  Level Cleveland Center
01:25PM 42.8211 -79.4028 259° West 388 447 30,000 -200 Level Cleveland Center
01:26PM 42.8014 -79.5447 259° West 393 452 29,600 -700 Descending Cleveland Center
01:27PM 42.7819 -79.6808 259° West 393 452 28,600 -1,250 Descending Cleveland Center
01:28PM 42.7600 -79.8142 257° West 378 435 27,100 -1,300 Descending Cleveland Center
01:29PM 42.7483 -79.9528 264° West 371 427 26,000 -550 Descending Cleveland Center
01:30PM 42.7425 -80.0686 266° West 371 427 26,000  Level Cleveland Center
01:31PM 42.7347 -80.1958 265° West 353 406 26,000  Level Cleveland Center
01:32PM 42.7289 -80.3203 266° West 331 381 26,000  Level Cleveland Center
01:33PM 42.7247 -80.4447 267° West 331 381 26,000  Level Cleveland Center
01:34PM 42.7228 -80.5775 269° West 344 396 26,000 -150 Level Cleveland Center
01:35PM 42.7144 -80.7189 265° West 373 429 25,700 -900 Descending Cleveland Center
01:36PM 42.7078 -80.8544 266° West 373 429 24,200 -1,500 Descending Cleveland Center
01:37PM 42.6950 -80.9928 263° West 373 429 22,700 -1,500 Descending Cleveland Center
01:38PM 42.6800 -81.1197 261° West 353 406 21,200 -850 Descending Cleveland Center
01:39PM 42.6667 -81.2553 262° West 342 394 21,000 -100 Descending Cleveland Center
01:40PM 42.6514 -81.3792 261° West 337 388 21,000  Level Cleveland Center
01:41PM 42.6358 -81.5003 260° West 330 380 21,000  Level Cleveland Center
01:42PM 42.6222 -81.6244 262° West 335 386 21,000  Level Cleveland Center
01:43PM 42.6086 -81.7425 261° West 335 386 21,000 -650 Level Cleveland Center
01:44PM 42.5928 -81.8494 259° West 335 386 19,700 -1,400 Descending Cleveland Center
01:45PM 42.5789 -81.9706 261° West 330 380 18,200 -1,400 Descending Cleveland Center
01:46PM 42.5650 -82.0800 260° West 318 366 16,900 -1,455 Descending Cleveland Center
01:46PM 42.5578 -82.1617 263° West 292 336 15,800 -1,500 Descending Cleveland Center
01:47PM 42.5533 -82.1869 257° West 306 352 15,400 -1,636 Descending Cleveland Center
01:47PM 42.5439 -82.2628 260° West 285 328 14,300 -1,500 Descending Cleveland Center
01:48PM 42.5392 -82.2908 257° West 295 339 13,900 -1,475 Descending Cleveland Center
01:48PM 42.5317 -82.3694 263° West 285 328 12,800 -1,500 Descending Cleveland Center
01:49PM 42.5250 -82.3975 252° West 295 339 12,400 -787 Descending Cleveland Center
01:49PM 42.5175 -82.4733 262° West 277 319 12,000 -400 Descending Cleveland Center
01:50PM 42.5150 -82.5014 263° West 290 334 12,000  Level Cleveland Center
01:50PM 42.4972 -82.5742 252° West 283 326 12,000 -300 Level Cleveland Center
01:51PM 42.4883 -82.5992 244° Southwest 285 328 11,700 -1,000 Descending Cleveland Center
01:51PM 42.4536 -82.6711 237° Southwest 261 300 10,900 -1,000 Descending Cleveland Center
01:52PM 42.4472 -82.6794 224° Southwest 273 314 10,700 -1,082 Descending Cleveland Center
01:52PM 42.4128 -82.7514 237° Southwest 255 293 9,800 -1,000 Descending Cleveland Center
01:53PM 42.4103 -82.7628 253° West 268 308 9,700 -984 Descending Cleveland Center
01:53PM 42.4172 -82.8444 277° West 234 269 8,800 -1,000 Descending Cleveland Center
01:54PM 42.4169 -82.8528 267° West 242 278 8,700 -960 Descending Cleveland Center
01:54PM 42.4261 -82.9122 282° West 228 262 8,000 -1,000 Descending Cleveland Center
01:55PM 42.4278 -82.9406 275° West 236 272 7,700 -896 Descending Cleveland Center
01:55PM 42.4642 -82.9953 312° West 241 277 7,000 -700 Descending Cleveland Center
01:56PM 42.4700 -83.0067 305° West 228 262 7,000  Level Cleveland Center
01:56PM 42.5175 -83.0256 344° North 205 236 7,000  Level Cleveland Center
01:57PM 42.5356 -83.0686 300° West 148 170 7,000 -344 Level Cleveland Center
01:58PM 42.5114 -83.1156 235° Southwest 153 176 6,300 -577 Descending Cleveland Center
01:59PM 42.4894 -83.1333 211° Southwest 164 189 6,000 -290 Descending FAA TRACON SMA TRACON (SMA)
01:59PM 42.4753 -83.1453 212° Southwest 162 186 6,000  Level FAA TRACON SMA TRACON (SMA)
02:00PM 42.4614 -83.1558 209° Southwest 163 188 6,000  Level FAA TRACON SMA TRACON (SMA)
02:00PM 42.4497 -83.1639 207° Southwest 162 186 6,000 -150 Level FAA TRACON SMA TRACON (SMA)
02:00PM 42.4356 -83.1742 208° Southwest 161 185 5,900 -750 Descending FAA TRACON SMA TRACON (SMA)
02:01PM 42.4214 -83.1847 209° Southwest 163 188 5,500 -1,077 Descending FAA TRACON SMA TRACON (SMA)
02:01PM 42.4103 -83.1933 210° Southwest 164 189 5,200 -1,077 Descending FAA TRACON SMA TRACON (SMA)
02:01PM 42.3950 -83.2047 209° Southwest 167 192 4,800 -1,024 Descending FAA TRACON SMA TRACON (SMA)
02:02PM 42.3806 -83.2167 211° Southwest 176 203 4,500 -900 Descending FAA TRACON SMA TRACON (SMA)
02:02PM 42.3672 -83.2256 206° Southwest 181 208 4,200 -1,077 Descending FAA TRACON SMA TRACON (SMA)
02:02PM 42.3500 -83.2378 208° Southwest 186 214 3,800 -1,050 Descending FAA TRACON SMA TRACON (SMA)
02:03PM 42.3367 -83.2478 209° Southwest 185 213 3,500 -977 Descending FAA TRACON SMA TRACON (SMA)
02:03PM 42.3200 -83.2603 209° Southwest 184 212 3,100 -1,116 Descending FAA TRACON SMA TRACON (SMA)
02:04PM 42.3044 -83.2725 210° Southwest 183 211 2,700 -1,105 Descending FAA TRACON SMA TRACON (SMA)
02:04PM 42.2911 -83.2817 207° Southwest 179 206 2,400 -947 Descending FAA TRACON SMA TRACON (SMA)
02:04PM 42.2761 -83.2928 209° Southwest 176 203 2,100 -900 Descending FAA TRACON SMA TRACON (SMA)
02:04PM 42.2644 -83.3011 208° Southwest 163 188 1,800 -900 Descending FAA TRACON SMA TRACON (SMA)